createdAt,value
2022-11-18T00:01:34.839Z,14.30
2022-11-18T00:05:11.877Z,7.00
2022-11-18T00:08:50.078Z,8.90
2022-11-18T00:13:04.942Z,7.00
2022-11-18T00:16:26.492Z,3.40
2022-11-18T00:20:23.083Z,7.70
2022-11-18T00:23:44.175Z,4.00
2022-11-18T00:27:40.840Z,3.10
2022-11-18T00:31:07.610Z,6.10
2022-11-18T00:34:58.542Z,7.00
2022-11-18T00:38:39.861Z,7.60
2022-11-18T00:42:19.802Z,4.80
2022-11-18T00:45:43.918Z,4.00
2022-11-18T00:49:19.740Z,4.10
2022-11-18T00:52:57.144Z,5.80
2022-11-18T00:56:34.881Z,3.10
2022-11-18T01:00:31.864Z,2.50
2022-11-18T01:03:53.394Z,3.50
2022-11-18T01:07:49.849Z,4.20
2022-11-18T01:11:29.829Z,5.60
2022-11-18T01:15:10.910Z,3.80
2022-11-18T01:18:32.084Z,4.30
2022-11-18T01:22:09.731Z,6.10
2022-11-18T01:25:49.517Z,4.90
2022-11-18T01:29:43.897Z,4.60
2022-11-18T01:33:24.038Z,2.90
2022-11-18T01:36:45.596Z,4.50
2022-11-18T01:40:23.211Z,4.10
2022-11-18T01:44:42.287Z,5.10
2022-11-18T01:48:07.645Z,6.90
2022-11-18T01:51:49.016Z,4.80
2022-11-18T01:55:26.031Z,6.40
2022-11-18T01:59:20.168Z,5.60
2022-11-18T02:02:42.042Z,11.20
2022-11-18T02:06:19.882Z,6.00
2022-11-18T02:09:59.659Z,4.10
2022-11-18T02:13:53.620Z,2.90
2022-11-18T02:17:33.431Z,6.00
2022-11-18T02:21:02.093Z,7.30
2022-11-18T02:25:05.408Z,7.20
2022-11-18T02:28:49.690Z,5.80
2022-11-18T02:32:22.063Z,8.30
2022-11-18T02:35:58.493Z,8.10
2022-11-18T02:39:39.412Z,7.80
2022-11-18T02:43:30.283Z,4.90
2022-11-18T02:46:57.347Z,4.40
2022-11-18T02:50:32.376Z,5.20
2022-11-18T02:54:10.421Z,7.70
2022-11-18T02:57:46.427Z,2.90
2022-11-18T03:01:29.327Z,5.90
2022-11-18T03:05:39.444Z,8.00
2022-11-18T03:09:10.524Z,7.30
2022-11-18T03:13:02.967Z,5.70
2022-11-18T03:16:54.613Z,5.20
2022-11-18T03:20:31.425Z,7.20
2022-11-18T03:24:04.299Z,6.50
2022-11-18T03:27:59.956Z,8.20
2022-11-18T03:31:44.947Z,7.30
2022-11-18T03:35:28.495Z,8.80
2022-11-18T03:38:58.872Z,7.10
2022-11-18T03:42:35.026Z,7.60
2022-11-18T03:46:16.665Z,11.80
2022-11-18T03:50:12.783Z,10.60
2022-11-18T03:54:00.308Z,11.80
2022-11-18T03:57:54.329Z,10.20
2022-11-18T04:01:42.621Z,8.00
2022-11-18T04:05:09.432Z,8.50
2022-11-18T04:08:44.890Z,9.70
2022-11-18T04:12:23.108Z,11.10
2022-11-18T04:16:16.313Z,9.30
2022-11-18T04:19:37.811Z,11.00
2022-11-18T04:23:34.073Z,13.40
2022-11-18T04:26:55.376Z,14.60
2022-11-18T04:30:51.925Z,12.90
2022-11-18T04:34:32.064Z,22.50
2022-11-18T04:37:55.030Z,7.20
2022-11-18T04:41:49.359Z,10.40
2022-11-18T04:45:11.857Z,9.30
2022-11-18T04:48:49.190Z,11.40
2022-11-18T04:52:45.794Z,14.60
2022-11-18T04:56:07.929Z,14.70
2022-11-18T04:59:44.862Z,14.20
2022-11-18T05:03:22.699Z,12.10
2022-11-18T05:07:02.253Z,11.00
2022-11-18T05:10:38.689Z,10.50
2022-11-18T05:14:15.565Z,10.50
2022-11-18T05:18:11.995Z,19.20
2022-11-18T05:21:33.781Z,19.00
2022-11-18T05:25:30.200Z,20.60
2022-11-18T05:28:51.742Z,13.40
2022-11-18T05:32:29.152Z,8.70
2022-11-18T05:36:15.656Z,14.60
2022-11-18T05:39:44.440Z,10.90
2022-11-18T05:43:22.221Z,8.60
2022-11-18T05:47:18.635Z,23.00
2022-11-18T05:50:40.434Z,23.10
2022-11-18T05:54:19.925Z,15.80
2022-11-18T05:57:55.869Z,21.60
2022-11-18T06:01:55.699Z,29.70
2022-11-18T06:05:18.951Z,23.10
2022-11-18T06:09:07.032Z,9.80
2022-11-18T06:12:55.138Z,10.20
2022-11-18T06:16:21.379Z,8.60
2022-11-18T06:20:13.317Z,13.20
2022-11-18T06:23:54.186Z,14.40
2022-11-18T06:27:16.475Z,15.00
2022-11-18T06:31:12.443Z,10.80
2022-11-18T06:34:39.755Z,11.00
2022-11-18T06:38:11.903Z,13.20
2022-11-18T06:42:08.860Z,11.20
2022-11-18T06:45:30.591Z,13.20
2022-11-18T06:49:08.186Z,11.90
2022-11-18T06:53:04.643Z,13.40
2022-11-18T06:56:26.598Z,11.40
2022-11-18T07:00:22.922Z,9.90
2022-11-18T07:03:46.283Z,14.80
2022-11-18T07:07:21.955Z,11.20
2022-11-18T07:10:59.418Z,20.80
2022-11-18T07:14:37.369Z,18.80
2022-11-18T07:18:36.594Z,23.30
2022-11-18T07:21:59.599Z,23.60
2022-11-18T07:25:55.385Z,17.60
2022-11-18T07:29:35.970Z,21.00
2022-11-18T07:33:16.280Z,21.80
2022-11-18T07:36:37.910Z,17.00
2022-11-18T07:40:15.629Z,16.40
2022-11-18T07:44:00.270Z,13.30
2022-11-18T07:47:34.275Z,15.30
2022-11-18T07:51:30.534Z,9.20
2022-11-18T07:55:11.005Z,14.80
2022-11-18T07:58:55.082Z,16.40
2022-11-18T08:02:35.539Z,11.90
2022-11-18T08:06:01.085Z,16.60
2022-11-18T08:09:34.416Z,9.10
2022-11-18T08:13:31.546Z,9.70
2022-11-18T08:17:11.839Z,15.70
2022-11-18T08:20:35.008Z,8.10
2022-11-18T08:24:29.840Z,12.20
2022-11-18T08:27:51.330Z,12.70
2022-11-18T08:31:47.940Z,9.50
2022-11-18T08:35:29.766Z,11.20
2022-11-18T08:38:51.344Z,8.00
2022-11-18T08:42:34.111Z,9.60
2022-11-18T08:46:25.401Z,8.10
2022-11-18T08:50:10.606Z,12.10
2022-11-18T08:53:32.924Z,15.10
2022-11-18T08:57:28.396Z,11.30
2022-11-18T09:00:49.842Z,8.10
2022-11-18T09:04:27.267Z,16.40
2022-11-18T09:08:25.760Z,13.70
2022-11-18T09:12:06.536Z,10.60
2022-11-18T09:15:29.685Z,14.60
2022-11-18T09:19:24.765Z,11.30
2022-11-18T09:22:48.481Z,10.50
2022-11-18T09:26:45.271Z,11.20
2022-11-18T09:30:26.315Z,11.40
2022-11-18T09:33:48.523Z,10.80
2022-11-18T09:37:26.259Z,18.50
2022-11-18T09:41:37.924Z,10.20
2022-11-18T09:45:25.412Z,13.30
2022-11-18T09:49:08.567Z,13.30
2022-11-18T09:52:58.954Z,16.50
2022-11-18T09:56:22.279Z,10.20
2022-11-18T10:00:24.538Z,18.30
2022-11-18T10:03:46.662Z,10.80
2022-11-18T10:07:59.469Z,15.30
2022-11-18T10:11:25.070Z,12.40
2022-11-18T10:15:38.712Z,10.80
2022-11-18T10:19:06.576Z,9.20
2022-11-18T10:22:58.759Z,12.50
2022-11-18T10:26:41.353Z,10.40
2022-11-18T10:30:11.261Z,11.10
2022-11-18T10:33:41.000Z,14.20
2022-11-18T10:38:07.514Z,10.80
2022-11-18T10:41:48.566Z,7.20
2022-11-18T10:45:25.102Z,14.40
2022-11-18T10:48:48.158Z,12.40
2022-11-18T10:52:52.982Z,11.50
2022-11-18T10:56:58.531Z,13.90
2022-11-18T11:00:36.139Z,12.10
2022-11-18T11:04:24.748Z,11.40
2022-11-18T11:08:36.339Z,12.50
2022-11-18T11:12:18.397Z,10.20
2022-11-18T11:15:45.220Z,9.40
2022-11-18T11:19:46.482Z,13.60
2022-11-18T11:23:23.289Z,21.50
2022-11-18T11:30:49.602Z,20.90
2022-11-18T11:34:28.509Z,17.50
2022-11-18T11:38:07.195Z,19.80
2022-11-18T11:41:43.832Z,18.00
2022-11-18T11:45:57.620Z,18.10
2022-11-18T11:50:08.213Z,13.50
2022-11-18T11:53:48.894Z,12.80
2022-11-18T11:57:18.881Z,11.50
2022-11-18T12:01:08.230Z,10.90
2022-11-18T12:04:38.291Z,11.50
2022-11-18T12:08:31.508Z,12.40
2022-11-18T12:12:29.239Z,11.30
2022-11-18T12:16:24.366Z,12.60
2022-11-18T12:19:48.768Z,17.70
2022-11-18T12:23:33.030Z,14.10
2022-11-18T12:27:30.972Z,17.90
2022-11-18T12:31:18.964Z,14.80
2022-11-18T12:35:12.931Z,22.80
2022-11-18T12:38:54.535Z,17.10
2022-11-18T12:43:05.773Z,12.90
2022-11-18T12:46:48.765Z,14.30
2022-11-18T12:50:16.526Z,15.60
2022-11-18T12:54:45.601Z,12.20
2022-11-18T12:58:23.840Z,12.60
2022-11-18T13:01:45.915Z,13.20
2022-11-18T13:05:29.529Z,13.40
2022-11-18T13:09:04.236Z,15.10
2022-11-18T13:12:59.167Z,21.00
2022-11-18T13:16:43.083Z,12.10
2022-11-18T13:20:05.619Z,12.50
2022-11-18T13:23:56.147Z,8.30
2022-11-18T13:27:49.663Z,15.20
2022-11-18T13:32:09.076Z,18.00
2022-11-18T13:35:31.083Z,15.90
2022-11-18T13:39:23.411Z,14.30
2022-11-18T13:42:46.044Z,15.00
2022-11-18T13:46:24.042Z,14.30
2022-11-18T13:50:39.494Z,14.10
2022-11-18T13:54:23.785Z,15.60
2022-11-18T13:57:52.254Z,14.10
2022-11-18T14:01:25.321Z,10.30
2022-11-18T14:05:21.636Z,13.30
2022-11-18T14:08:44.079Z,20.90
2022-11-18T14:12:25.097Z,12.60
2022-11-18T14:16:01.541Z,16.60
2022-11-18T14:19:38.275Z,20.10
2022-11-18T14:23:17.830Z,9.10
2022-11-18T14:26:52.471Z,17.20
2022-11-18T14:30:37.546Z,19.50
2022-11-18T14:34:27.227Z,24.30
2022-11-18T14:37:48.445Z,16.30
2022-11-18T14:41:45.422Z,17.80
2022-11-18T14:45:07.928Z,15.30
2022-11-18T14:48:46.645Z,14.30
2022-11-18T14:52:23.543Z,14.50
2022-11-18T14:56:34.246Z,14.10
2022-11-18T14:59:55.690Z,13.60
2022-11-18T15:03:52.588Z,15.40
2022-11-18T15:07:33.705Z,17.20
2022-11-18T15:10:55.950Z,21.60
2022-11-18T15:14:33.210Z,10.60
2022-11-18T15:18:29.759Z,14.60
2022-11-18T15:21:51.301Z,15.70
2022-11-18T15:25:28.916Z,15.60
2022-11-18T15:29:25.532Z,17.60
2022-11-18T15:33:05.816Z,38.80
2022-11-18T15:36:27.668Z,21.50
2022-11-18T15:40:23.904Z,10.60
2022-11-18T15:43:47.400Z,8.40
2022-11-18T15:47:41.878Z,14.80
2022-11-18T15:51:06.469Z,18.10
2022-11-18T15:54:40.715Z,29.20
2022-11-18T15:58:18.535Z,21.70
2022-11-18T16:01:56.909Z,21.10
2022-11-18T16:05:52.606Z,16.20
2022-11-18T16:09:51.489Z,10.50
2022-11-18T16:13:12.902Z,13.10
2022-11-18T16:16:54.277Z,10.60
2022-11-18T16:20:47.352Z,10.70
2022-11-18T16:24:11.973Z,9.80
2022-11-18T16:27:51.438Z,9.00
2022-11-18T16:31:46.423Z,10.10
2022-11-18T16:35:07.959Z,5.80
2022-11-18T16:38:45.341Z,7.30
2022-11-18T16:42:41.957Z,7.90
2022-11-18T16:46:22.284Z,4.70
2022-11-18T16:49:43.927Z,11.80
2022-11-18T16:53:21.419Z,8.70
2022-11-18T16:56:59.717Z,8.10
2022-11-18T17:01:19.785Z,6.50
2022-11-18T17:04:56.017Z,4.20
2022-11-18T17:08:17.469Z,4.30
2022-11-18T17:11:55.995Z,8.60
2022-11-18T17:15:35.734Z,6.40
2022-11-18T17:19:16.104Z,5.80
2022-11-18T17:22:48.063Z,7.90
2022-11-18T17:26:28.052Z,5.70
2022-11-18T17:30:22.262Z,5.40
2022-11-18T17:33:44.150Z,11.00
2022-11-18T17:37:21.902Z,11.40
2022-11-18T17:40:59.200Z,4.70
2022-11-18T17:44:55.559Z,9.80
2022-11-18T17:48:35.712Z,5.90
2022-11-18T17:52:16.165Z,7.90
2022-11-18T17:55:37.361Z,7.30
2022-11-18T17:59:34.050Z,9.50
2022-11-18T18:02:55.524Z,9.30
2022-11-18T18:06:52.589Z,6.90
2022-11-18T18:10:14.552Z,5.20
2022-11-18T18:14:10.595Z,6.50
2022-11-18T18:17:32.683Z,10.30
2022-11-18T18:21:12.932Z,5.30
2022-11-18T18:25:07.250Z,8.40
2022-11-18T18:28:29.331Z,7.20
2022-11-18T18:32:06.612Z,7.80
2022-11-18T18:36:05.002Z,6.30
2022-11-18T18:39:26.668Z,5.60
2022-11-18T18:43:04.390Z,6.20
2022-11-18T18:47:00.775Z,6.60
2022-11-18T18:50:28.201Z,13.00
2022-11-18T18:54:00.647Z,7.20
2022-11-18T18:57:56.421Z,8.70
2022-11-18T19:01:37.594Z,10.90
2022-11-18T19:05:00.456Z,9.40
2022-11-18T19:08:59.363Z,14.00
2022-11-18T19:12:42.554Z,18.20
2022-11-18T19:16:22.775Z,11.40
2022-11-18T19:20:04.328Z,14.60
2022-11-18T19:23:26.531Z,10.50
2022-11-18T19:27:07.035Z,12.40
2022-11-18T19:30:42.445Z,17.90
2022-11-18T19:34:19.843Z,14.00
2022-11-18T19:38:16.439Z,17.50
2022-11-18T19:41:38.150Z,21.20
2022-11-18T19:45:15.718Z,12.60
2022-11-18T19:48:53.326Z,8.60
2022-11-18T19:52:30.959Z,23.20
2022-11-18T19:56:27.625Z,27.60
2022-11-18T19:59:49.200Z,13.30
2022-11-18T20:03:28.342Z,32.80
2022-11-18T20:07:04.603Z,17.30
2022-11-18T20:11:09.095Z,12.50
2022-11-18T20:14:30.963Z,13.00
2022-11-18T20:18:28.345Z,16.10
2022-11-18T20:21:50.183Z,12.70
2022-11-18T20:25:46.656Z,12.90
2022-11-18T20:29:27.758Z,16.10
2022-11-18T20:32:50.306Z,9.00
2022-11-18T20:36:51.310Z,11.90
2022-11-18T20:40:15.895Z,12.00
2022-11-18T20:44:09.168Z,10.30
2022-11-18T20:47:30.546Z,13.00
2022-11-18T20:51:14.118Z,10.90
2022-11-18T20:54:45.814Z,7.80
2022-11-18T20:58:43.409Z,12.40
2022-11-18T21:02:04.825Z,11.40
2022-11-18T21:06:14.251Z,10.50
2022-11-18T21:09:36.347Z,8.50
2022-11-18T21:13:59.157Z,11.60
2022-11-18T21:17:41.436Z,12.30
2022-11-18T21:21:21.864Z,8.00
2022-11-18T21:25:03.315Z,9.60
2022-11-18T21:28:43.692Z,9.40
2022-11-18T21:32:05.186Z,13.70
2022-11-18T21:35:42.759Z,19.60
2022-11-18T21:39:39.404Z,11.00
2022-11-18T21:43:00.669Z,9.60
2022-11-18T21:46:40.374Z,10.30
2022-11-18T21:50:34.753Z,10.30
2022-11-18T21:53:55.996Z,7.40
2022-11-18T21:57:52.819Z,7.60
2022-11-18T22:01:23.572Z,11.40
2022-11-18T22:04:54.911Z,10.80
2022-11-18T22:08:48.501Z,6.90
2022-11-18T22:12:28.724Z,4.90
2022-11-18T22:16:14.882Z,12.90
2022-11-18T22:19:36.297Z,9.20
2022-11-18T22:23:14.554Z,10.50
2022-11-18T22:27:11.669Z,9.90
2022-11-18T22:30:52.761Z,24.30
2022-11-18T22:34:14.326Z,22.50
2022-11-18T22:37:52.497Z,12.90
2022-11-18T22:41:48.644Z,11.50
2022-11-18T22:45:10.784Z,9.40
2022-11-18T22:48:48.935Z,11.40
2022-11-18T22:52:26.451Z,11.10
2022-11-18T22:56:23.348Z,8.50
2022-11-18T22:59:44.969Z,11.80
2022-11-18T23:03:22.555Z,9.40
2022-11-18T23:07:00.392Z,7.70
2022-11-18T23:24:13.191Z,12.10
2022-11-18T23:27:37.519Z,13.20
2022-11-18T23:31:24.031Z,7.60
2022-11-18T23:34:50.093Z,14.60
2022-11-18T23:38:28.694Z,11.70
2022-11-18T23:42:05.961Z,8.30
2022-11-18T23:46:03.130Z,13.70
2022-11-18T23:49:27.350Z,15.40
2022-11-18T23:53:02.588Z,12.50
2022-11-18T23:56:59.146Z,17.00
